Youngstown, Illinois
Current Conditions -  °F | °C
As of 9:35 PM on Saturday 22 Nov 2014 (Local Time) from KMQB Reporting Station
Broken Clouds Broken Clouds  
Wind Chill: 51°   Ceiling: 1300
Heat Index: 51°   Visibility: 10mi
Dew Point: 48°   Wind: 15mph
Humidity: 89%   Direction: 180°S
Pressure: 29.83"   Gusts: NA
Location:  40.7092°N, 90.6155°W
Report Text: KMQB 230335Z AUTO 18013KT 10SM BKN013 BKN070 11/09 A2983 RMK AO2 T01050087
Loading
Personal Weather Stations






























Interactive Weather Map New forecast layout! Learn more

10-Day Weather Forecast

Advertisements
Track Severe Weather on mobile